Time;durP1;ratioP1;P1;durP2;ratioP2;P2;SDS_P1;SDS_P2;PMS_P1;PMS_P2;Temp;Humidity;BMP_temperature;BMP_pressure;BME280_temperature;BME280_humidity;BME280_pressure;Samples;Min_cycle;Max_cycle;Signal;HPM_P1;HPM_P2
2022/12/23 00:00:13;;;;;;;2.00;1.33;;;;;;;;;;5093340;28;20950;-77
2022/12/23 00:02:40;;;;;;;1.53;1.37;;;;;;;;;;5076697;28;20472;-76
2022/12/23 00:05:08;;;;;;;4.20;1.57;;;;;;;;;;5073552;28;20448;-76
2022/12/23 00:07:36;;;;;;;1.53;1.30;;;;;;;;;;5073075;28;20942;-76
2022/12/23 00:10:03;;;;;;;1.73;1.40;;;;;;;;;;5072806;28;20441;-75
2022/12/23 00:15:15;;;;;;;2.30;1.10;;;;;;;;;;5074348;28;20447;-76
2022/12/23 00:17:44;;;;;;;6.73;1.43;;;;;;;;;;5073639;28;20484;-76
2022/12/23 00:20:12;;;;;;;3.60;1.73;;;;;;;;;;5074110;28;20440;-75
2022/12/23 00:28:20;;;;;;;1.70;1.30;;;;;;;;;;5088258;28;20571;-76
2022/12/23 00:30:48;;;;;;;1.67;1.40;;;;;;;;;;5088627;28;20439;-76
2022/12/23 00:33:15;;;;;;;2.33;2.00;;;;;;;;;;5088297;28;20431;-76
2022/12/23 00:35:42;;;;;;;2.23;1.33;;;;;;;;;;5088109;28;20817;-76
2022/12/23 00:38:09;;;;;;;1.63;1.20;;;;;;;;;;5087657;28;20467;-76
2022/12/23 00:43:22;;;;;;;1.30;1.30;;;;;;;;;;5087131;28;20392;-77
2022/12/23 00:45:50;;;;;;;1.30;1.20;;;;;;;;;;5087762;28;20455;-77
2022/12/23 00:51:00;;;;;;;1.17;1.07;;;;;;;;;;5055944;28;20447;-74
2022/12/23 00:53:27;;;;;;;3.30;1.40;;;;;;;;;;5087991;28;20443;-77
2022/12/23 00:55:54;;;;;;;1.33;1.23;;;;;;;;;;5087575;28;20446;-76
2022/12/23 00:58:23;;;;;;;1.70;0.90;;;;;;;;;;5083836;28;20468;-76
2022/12/23 01:06:28;;;;;;;1.13;1.10;;;;;;;;;;5009230;28;20467;-76
2022/12/23 01:08:55;;;;;;;1.20;1.10;;;;;;;;;;5067064;28;20426;-75
2022/12/23 01:11:22;;;;;;;1.80;1.27;;;;;;;;;;5066956;28;20448;-76
2022/12/23 01:13:50;;;;;;;1.10;1.00;;;;;;;;;;5066566;28;20514;-76
2022/12/23 01:16:17;;;;;;;1.20;1.10;;;;;;;;;;5066701;28;20469;-76
2022/12/23 01:18:45;;;;;;;1.00;1.00;;;;;;;;;;5066798;28;20468;-76
2022/12/23 01:21:12;;;;;;;2.90;1.00;;;;;;;;;;5066386;28;20605;-76
2022/12/23 01:23:39;;;;;;;1.07;0.97;;;;;;;;;;5066465;28;20456;-76
2022/12/23 01:26:06;;;;;;;0.90;0.90;;;;;;;;;;5066143;28;20440;-76
2022/12/23 01:28:34;;;;;;;0.90;0.90;;;;;;;;;;5066408;28;20887;-76
2022/12/23 01:31:03;;;;;;;1.10;1.00;;;;;;;;;;5066777;28;20468;-76
2022/12/23 01:33:31;;;;;;;1.20;0.90;;;;;;;;;;5075013;28;20547;-76
2022/12/23 01:36:01;;;;;;;1.10;1.00;;;;;;;;;;5081051;28;20436;-76
2022/12/23 01:38:28;;;;;;;0.80;0.80;;;;;;;;;;5066289;28;20429;-76
2022/12/23 01:40:56;;;;;;;0.93;0.93;;;;;;;;;;5053386;28;20449;-76
2022/12/23 01:43:22;;;;;;;1.20;1.00;;;;;;;;;;5052936;28;20448;-76
2022/12/23 01:45:49;;;;;;;1.10;1.00;;;;;;;;;;5053638;28;20460;-76
2022/12/23 01:48:19;;;;;;;1.10;1.10;;;;;;;;;;5062482;28;20476;-76
2022/12/23 01:50:47;;;;;;;1.00;1.00;;;;;;;;;;5073718;28;20433;-75
2022/12/23 01:53:17;;;;;;;3.23;1.20;;;;;;;;;;5055898;28;20805;-75
2022/12/23 01:55:46;;;;;;;0.80;0.80;;;;;;;;;;5065076;28;20440;-76
2022/12/23 01:58:15;;;;;;;1.10;1.10;;;;;;;;;;5064965;28;20861;-76
2022/12/23 02:03:43;;;;;;;0.97;0.70;;;;;;;;;;5052566;28;20405;-76
2022/12/23 02:11:48;;;;;;;0.90;0.90;;;;;;;;;;5052447;28;20413;-76
2022/12/23 02:17:16;;;;;;;1.00;1.00;;;;;;;;;;4995119;28;20481;-77
2022/12/23 02:20:03;;;;;;;1.37;0.80;;;;;;;;;;5052319;28;20429;-76
2022/12/23 02:22:42;;;;;;;0.80;0.80;;;;;;;;;;5052858;28;20438;-77
2022/12/23 02:25:27;;;;;;;2.37;1.10;;;;;;;;;;5052332;28;20437;-77
2022/12/23 02:27:59;;;;;;;1.57;1.00;;;;;;;;;;5052170;28;20489;-76
2022/12/23 02:30:35;;;;;;;0.77;0.77;;;;;;;;;;5051796;28;21112;-76
2022/12/23 02:33:14;;;;;;;1.13;1.00;;;;;;;;;;5051984;28;20433;-76
2022/12/23 02:35:43;;;;;;;1.53;1.37;;;;;;;;;;5051891;28;21085;-77
2022/12/23 02:38:11;;;;;;;0.70;0.70;;;;;;;;;;5052426;28;20488;-76
2022/12/23 02:40:41;;;;;;;0.77;0.77;;;;;;;;;;5051792;28;20941;-75
2022/12/23 02:43:12;;;;;;;1.17;0.80;;;;;;;;;;5051501;28;20457;-76
2022/12/23 02:45:42;;;;;;;0.80;0.80;;;;;;;;;;5051871;28;20438;-76
2022/12/23 02:48:10;;;;;;;0.80;0.80;;;;;;;;;;5052181;28;20494;-77
2022/12/23 02:50:39;;;;;;;1.23;0.70;;;;;;;;;;5050513;28;20935;-76
2022/12/23 02:53:10;;;;;;;0.70;0.70;;;;;;;;;;5051634;28;20563;-76
2022/12/23 02:55:39;;;;;;;0.70;0.70;;;;;;;;;;5051538;28;20438;-76
2022/12/23 02:58:08;;;;;;;1.10;0.70;;;;;;;;;;5051550;28;20474;-76
2022/12/23 03:00:36;;;;;;;0.77;0.77;;;;;;;;;;5051618;28;20449;-76
2022/12/23 03:03:04;;;;;;;0.50;0.50;;;;;;;;;;5051555;28;20449;-76
2022/12/23 03:05:34;;;;;;;0.77;0.77;;;;;;;;;;5051683;28;20449;-76
2022/12/23 03:08:03;;;;;;;0.67;0.53;;;;;;;;;;5051000;28;20568;-76
2022/12/23 03:10:35;;;;;;;1.13;0.50;;;;;;;;;;5051476;28;20437;-76
2022/12/23 03:13:09;;;;;;;0.40;0.40;;;;;;;;;;5051161;28;20437;-76
2022/12/23 03:15:39;;;;;;;0.57;0.57;;;;;;;;;;5051444;28;20449;-76
2022/12/23 03:18:12;;;;;;;0.47;0.47;;;;;;;;;;5051285;28;20466;-75
2022/12/23 03:20:42;;;;;;;1.03;0.60;;;;;;;;;;5050979;28;20805;-77
2022/12/23 03:23:18;;;;;;;0.70;0.53;;;;;;;;;;5050749;28;20453;-77
2022/12/23 03:25:48;;;;;;;0.63;0.63;;;;;;;;;;5051092;28;20430;-76
2022/12/23 03:28:17;;;;;;;1.13;0.70;;;;;;;;;;5050348;28;20489;-76
2022/12/23 03:30:46;;;;;;;0.90;0.90;;;;;;;;;;5050775;28;20445;-76
2022/12/23 03:33:17;;;;;;;0.60;0.60;;;;;;;;;;5050265;28;20442;-76
2022/12/23 03:35:47;;;;;;;1.33;0.63;;;;;;;;;;5050859;28;20431;-75
2022/12/23 03:38:16;;;;;;;0.60;0.60;;;;;;;;;;5050206;28;21034;-76
2022/12/23 03:40:45;;;;;;;0.60;0.60;;;;;;;;;;5050948;28;20453;-75
2022/12/23 03:43:16;;;;;;;0.80;0.80;;;;;;;;;;5050311;28;20882;-76
2022/12/23 03:45:45;;;;;;;0.70;0.60;;;;;;;;;;5050827;28;20579;-75
2022/12/23 03:48:17;;;;;;;0.77;0.70;;;;;;;;;;5050715;28;20493;-75
2022/12/23 03:50:46;;;;;;;0.60;0.60;;;;;;;;;;5051068;28;20434;-76
2022/12/23 03:53:16;;;;;;;0.60;0.60;;;;;;;;;;5052466;28;20449;-75
2022/12/23 03:55:45;;;;;;;0.70;0.70;;;;;;;;;;5051677;28;20442;-75
2022/12/23 03:58:14;;;;;;;0.70;0.70;;;;;;;;;;5051712;28;20469;-76
2022/12/23 04:00:47;;;;;;;0.93;0.80;;;;;;;;;;5050269;28;20446;-75
2022/12/23 04:03:18;;;;;;;0.87;0.80;;;;;;;;;;5050062;28;20461;-75
2022/12/23 04:05:50;;;;;;;0.80;0.80;;;;;;;;;;5050532;28;20508;-77
2022/12/23 04:08:20;;;;;;;0.97;0.70;;;;;;;;;;5062394;28;20485;-75
2022/12/23 04:10:48;;;;;;;0.87;0.87;;;;;;;;;;5064140;28;20437;-74
2022/12/23 04:13:15;;;;;;;0.70;0.70;;;;;;;;;;5053662;28;20513;-76
2022/12/23 04:15:42;;;;;;;0.80;0.80;;;;;;;;;;5050266;28;20458;-76
2022/12/23 04:18:10;;;;;;;0.70;0.70;;;;;;;;;;5049978;28;20973;-76
2022/12/23 04:20:38;;;;;;;1.07;0.60;;;;;;;;;;5050326;28;20452;-76
2022/12/23 04:23:06;;;;;;;0.50;0.50;;;;;;;;;;5050027;28;20471;-76
2022/12/23 04:25:33;;;;;;;1.07;0.70;;;;;;;;;;5050088;28;20451;-76
2022/12/23 04:28:00;;;;;;;0.50;0.50;;;;;;;;;;5049864;28;20481;-77
2022/12/23 04:30:27;;;;;;;1.80;0.70;;;;;;;;;;5064537;28;20442;-76
2022/12/23 04:32:54;;;;;;;2.00;0.80;;;;;;;;;;5071282;28;20430;-75
2022/12/23 04:35:21;;;;;;;1.13;0.80;;;;;;;;;;5052540;28;20804;-77
2022/12/23 04:37:48;;;;;;;1.37;0.87;;;;;;;;;;5049987;28;20457;-76
2022/12/23 04:40:17;;;;;;;0.60;0.60;;;;;;;;;;5050170;28;20499;-76
2022/12/23 04:42:44;;;;;;;0.50;0.50;;;;;;;;;;5049925;28;20453;-77
2022/12/23 04:45:11;;;;;;;0.60;0.60;;;;;;;;;;5065549;28;20428;-76
2022/12/23 04:47:39;;;;;;;0.70;0.70;;;;;;;;;;5071558;28;20473;-76
2022/12/23 04:50:07;;;;;;;0.73;0.73;;;;;;;;;;5056787;28;20490;-76
2022/12/23 04:52:34;;;;;;;0.80;0.80;;;;;;;;;;5070847;28;20437;-76
2022/12/23 04:55:01;;;;;;;0.80;0.80;;;;;;;;;;5065131;28;20496;-77
2022/12/23 04:57:29;;;;;;;0.60;0.60;;;;;;;;;;5050525;28;20477;-76
2022/12/23 04:59:56;;;;;;;0.60;0.60;;;;;;;;;;5049668;28;21220;-76
2022/12/23 05:02:23;;;;;;;1.70;0.80;;;;;;;;;;5049666;28;20453;-76
2022/12/23 05:04:50;;;;;;;0.60;0.60;;;;;;;;;;5049779;28;20464;-76
2022/12/23 05:07:17;;;;;;;0.60;0.60;;;;;;;;;;5049449;28;20767;-76
2022/12/23 05:09:44;;;;;;;1.03;0.60;;;;;;;;;;5049624;28;20937;-76
2022/12/23 05:12:11;;;;;;;0.60;0.60;;;;;;;;;;5049547;28;20445;-77
2022/12/23 05:14:40;;;;;;;0.60;0.60;;;;;;;;;;5052561;28;20480;-77
2022/12/23 05:17:07;;;;;;;0.60;0.60;;;;;;;;;;5053296;28;20469;-76
2022/12/23 05:19:34;;;;;;;0.70;0.70;;;;;;;;;;5053328;28;20452;-76
2022/12/23 05:22:01;;;;;;;0.73;0.73;;;;;;;;;;5053608;28;20446;-77
2022/12/23 05:24:28;;;;;;;1.07;0.70;;;;;;;;;;5053220;28;20449;-76
2022/12/23 05:26:55;;;;;;;0.70;0.70;;;;;;;;;;5053108;28;20856;-75
2022/12/23 05:29:22;;;;;;;0.87;0.70;;;;;;;;;;5053103;28;20873;-76
2022/12/23 05:31:50;;;;;;;0.90;0.60;;;;;;;;;;5053184;28;20460;-76
2022/12/23 05:34:17;;;;;;;0.83;0.80;;;;;;;;;;5053164;28;20445;-76
2022/12/23 05:36:45;;;;;;;0.83;0.83;;;;;;;;;;5053023;28;20508;-76
2022/12/23 05:39:12;;;;;;;0.80;0.80;;;;;;;;;;5053087;28;20854;-77
2022/12/23 05:41:39;;;;;;;0.60;0.60;;;;;;;;;;5053145;28;20449;-76
2022/12/23 05:44:06;;;;;;;1.13;0.60;;;;;;;;;;5052946;28;20568;-76
2022/12/23 05:46:33;;;;;;;0.90;0.90;;;;;;;;;;5052609;28;20458;-76
2022/12/23 05:49:01;;;;;;;0.80;0.80;;;;;;;;;;5053111;28;20482;-76
2022/12/23 05:51:28;;;;;;;0.77;0.77;;;;;;;;;;5052940;28;20448;-76
2022/12/23 05:53:55;;;;;;;0.70;0.70;;;;;;;;;;5052527;28;20453;-76
2022/12/23 05:56:22;;;;;;;1.17;1.00;;;;;;;;;;5052733;28;20999;-75
2022/12/23 05:58:49;;;;;;;1.00;1.00;;;;;;;;;;5053387;28;20499;-76
2022/12/23 06:01:16;;;;;;;1.30;1.30;;;;;;;;;;5053683;28;20441;-76
2022/12/23 06:03:44;;;;;;;1.10;1.10;;;;;;;;;;5053066;28;20434;-76
2022/12/23 06:06:12;;;;;;;1.10;1.10;;;;;;;;;;5052954;28;20441;-75
2022/12/23 06:08:39;;;;;;;1.13;0.93;;;;;;;;;;5052889;28;20500;-77
2022/12/23 06:11:06;;;;;;;1.10;1.10;;;;;;;;;;5052720;28;20437;-76
2022/12/23 06:13:33;;;;;;;1.30;1.20;;;;;;;;;;5052500;28;20446;-77
2022/12/23 06:16:00;;;;;;;3.40;1.20;;;;;;;;;;5052538;28;20440;-76
2022/12/23 06:18:27;;;;;;;1.00;1.00;;;;;;;;;;5052184;28;20944;-76
2022/12/23 06:20:54;;;;;;;2.30;1.13;;;;;;;;;;5052378;28;20940;-76
2022/12/23 06:23:23;;;;;;;1.57;1.03;;;;;;;;;;5052092;28;20449;-76
2022/12/23 06:25:50;;;;;;;1.17;1.17;;;;;;;;;;5052188;28;20491;-76
2022/12/23 06:28:17;;;;;;;1.47;1.37;;;;;;;;;;5052443;28;20481;-75
2022/12/23 06:30:44;;;;;;;12.90;11.60;;;;;;;;;;5052994;28;20929;-76
2022/12/23 06:33:11;;;;;;;2.80;2.60;;;;;;;;;;5052134;28;20441;-76
2022/12/23 06:35:38;;;;;;;1.27;1.17;;;;;;;;;;5052240;28;20471;-75
2022/12/23 06:38:05;;;;;;;1.63;1.20;;;;;;;;;;5052557;28;20544;-77
2022/12/23 06:40:33;;;;;;;1.50;1.00;;;;;;;;;;5055310;28;20446;-76
2022/12/23 06:43:00;;;;;;;1.40;1.30;;;;;;;;;;5059250;28;20450;-75
2022/12/23 06:45:27;;;;;;;1.40;1.40;;;;;;;;;;5056858;28;20503;-76
2022/12/23 06:47:54;;;;;;;1.40;1.30;;;;;;;;;;5054121;28;20469;-75
2022/12/23 06:50:21;;;;;;;2.23;2.13;;;;;;;;;;5055037;28;20441;-76
2022/12/23 06:52:48;;;;;;;1.70;1.60;;;;;;;;;;5054476;28;20449;-76
2022/12/23 06:55:15;;;;;;;1.63;1.53;;;;;;;;;;5054019;28;20484;-77
2022/12/23 06:57:45;;;;;;;3.03;2.83;;;;;;;;;;5051472;28;20814;-76
2022/12/23 07:00:12;;;;;;;2.00;1.90;;;;;;;;;;5051669;28;21099;-76
2022/12/23 07:02:39;;;;;;;1.77;1.67;;;;;;;;;;5051568;28;20448;-76
2022/12/23 07:05:07;;;;;;;2.03;1.90;;;;;;;;;;5051546;28;20445;-77
2022/12/23 07:07:34;;;;;;;2.87;2.03;;;;;;;;;;5051229;28;20956;-76
2022/12/23 07:10:01;;;;;;;2.00;1.90;;;;;;;;;;5051572;28;20478;-76
2022/12/23 07:12:29;;;;;;;2.07;1.87;;;;;;;;;;5051331;28;20452;-76
2022/12/23 07:14:57;;;;;;;2.13;2.03;;;;;;;;;;5051052;28;20446;-77
2022/12/23 07:17:24;;;;;;;2.40;2.30;;;;;;;;;;5050974;28;20944;-76
2022/12/23 07:19:51;;;;;;;2.47;2.17;;;;;;;;;;5051248;28;20520;-76
2022/12/23 07:22:18;;;;;;;3.83;2.50;;;;;;;;;;5051599;28;20442;-76
2022/12/23 07:24:45;;;;;;;5.30;2.70;;;;;;;;;;5050989;28;20856;-76
2022/12/23 07:27:12;;;;;;;3.20;3.00;;;;;;;;;;5054993;28;20477;-76
2022/12/23 07:29:39;;;;;;;4.17;3.30;;;;;;;;;;5059750;28;20485;-76
2022/12/23 07:32:07;;;;;;;6.93;3.07;;;;;;;;;;5052928;28;20438;-77
2022/12/23 07:34:35;;;;;;;3.63;3.30;;;;;;;;;;5050991;28;20472;-77
2022/12/23 07:37:02;;;;;;;2.90;2.70;;;;;;;;;;5050910;28;20474;-77
2022/12/23 07:39:29;;;;;;;4.07;3.67;;;;;;;;;;5051079;28;20488;-76
2022/12/23 07:41:56;;;;;;;3.83;3.43;;;;;;;;;;5064483;28;20445;-77
2022/12/23 07:44:23;;;;;;;3.70;3.50;;;;;;;;;;5065760;28;20442;-76
2022/12/23 07:46:50;;;;;;;3.23;3.03;;;;;;;;;;5053369;28;20465;-76
2022/12/23 07:49:18;;;;;;;20.10;18.20;;;;;;;;;;5055168;28;20477;-76
2022/12/23 07:51:45;;;;;;;21.80;19.13;;;;;;;;;;5054019;28;20473;-77
2022/12/23 07:54:13;;;;;;;9.80;8.80;;;;;;;;;;5050799;28;20454;-76
2022/12/23 07:56:40;;;;;;;3.90;3.70;;;;;;;;;;5050337;28;20552;-77
2022/12/23 07:59:07;;;;;;;6.37;5.87;;;;;;;;;;5050438;28;20557;-77
2022/12/23 08:01:34;;;;;;;4.90;3.77;;;;;;;;;;5050669;28;20453;-76
2022/12/23 08:04:01;;;;;;;4.60;4.20;;;;;;;;;;5049981;28;20821;-77
2022/12/23 08:06:29;;;;;;;4.27;3.87;;;;;;;;;;5050442;28;20466;-77
2022/12/23 08:08:56;;;;;;;5.40;3.43;;;;;;;;;;5050182;28;20488;-77
2022/12/23 08:11:23;;;;;;;3.93;3.63;;;;;;;;;;5050424;28;20449;-77
2022/12/23 08:13:51;;;;;;;4.17;3.80;;;;;;;;;;5050287;28;20458;-77
2022/12/23 08:16:18;;;;;;;3.63;3.43;;;;;;;;;;5051497;28;21102;-77
2022/12/23 08:18:45;;;;;;;3.87;3.53;;;;;;;;;;5051545;28;20433;-76
2022/12/23 08:21:14;;;;;;;5.63;4.40;;;;;;;;;;5053377;28;20449;-77
2022/12/23 08:23:43;;;;;;;3.90;3.50;;;;;;;;;;5050715;28;20993;-77
2022/12/23 08:26:11;;;;;;;4.40;3.80;;;;;;;;;;5050280;28;20441;-76
2022/12/23 08:28:39;;;;;;;5.27;4.87;;;;;;;;;;5050064;28;20468;-77
2022/12/23 08:31:07;;;;;;;4.17;3.80;;;;;;;;;;5049801;28;20484;-76
2022/12/23 08:33:35;;;;;;;3.57;3.33;;;;;;;;;;5049939;28;20441;-76
2022/12/23 08:36:02;;;;;;;5.53;4.53;;;;;;;;;;5050015;28;20511;-76
2022/12/23 08:38:29;;;;;;;5.10;4.70;;;;;;;;;;5050909;28;20528;-76
2022/12/23 08:40:58;;;;;;;4.30;3.90;;;;;;;;;;5051607;28;20527;-77
2022/12/23 08:43:25;;;;;;;3.77;3.47;;;;;;;;;;5051158;28;20476;-76
2022/12/23 08:45:52;;;;;;;4.83;3.73;;;;;;;;;;5051130;28;20453;-77
2022/12/23 08:48:19;;;;;;;3.60;3.30;;;;;;;;;;5054090;28;20477;-76
2022/12/23 08:50:47;;;;;;;5.47;3.40;;;;;;;;;;5058505;28;20488;-77
2022/12/23 08:53:14;;;;;;;4.60;3.80;;;;;;;;;;5078806;28;20452;-76
2022/12/23 08:55:41;;;;;;;3.60;3.30;;;;;;;;;;5078573;28;20892;-76
2022/12/23 08:58:10;;;;;;;5.80;3.50;;;;;;;;;;5078108;28;20467;-77
2022/12/23 09:00:38;;;;;;;11.00;9.93;;;;;;;;;;5075851;28;20439;-76
2022/12/23 09:03:05;;;;;;;5.90;4.13;;;;;;;;;;5074103;28;20959;-77
2022/12/23 09:05:32;;;;;;;4.57;3.53;;;;;;;;;;5074149;28;20444;-76
2022/12/23 09:08:00;;;;;;;3.30;3.00;;;;;;;;;;5075028;28;20469;-78
2022/12/23 09:10:27;;;;;;;4.23;3.20;;;;;;;;;;5087890;28;20480;-75
2022/12/23 09:12:54;;;;;;;3.37;2.23;;;;;;;;;;5076901;28;20449;-76
2022/12/23 09:15:22;;;;;;;2.27;2.17;;;;;;;;;;5074192;28;20453;-76
2022/12/23 09:17:49;;;;;;;2.53;2.33;;;;;;;;;;5084423;28;20468;-76
2022/12/23 09:20:16;;;;;;;2.90;2.33;;;;;;;;;;5078719;28;20451;-76
2022/12/23 09:22:44;;;;;;;2.60;1.93;;;;;;;;;;5081403;28;20475;-76
2022/12/23 09:25:11;;;;;;;3.43;2.90;;;;;;;;;;5076981;28;20538;-76
2022/12/23 09:27:38;;;;;;;2.50;1.73;;;;;;;;;;5073962;28;20479;-76
2022/12/23 09:30:05;;;;;;;2.53;2.27;;;;;;;;;;5039311;28;20481;-76
2022/12/23 09:32:33;;;;;;;2.00;1.90;;;;;;;;;;5034221;28;20500;-76
2022/12/23 09:35:00;;;;;;;2.27;1.93;;;;;;;;;;5034135;28;20450;-75
2022/12/23 09:37:27;;;;;;;2.30;2.10;;;;;;;;;;5034964;28;20833;-77
2022/12/23 09:39:55;;;;;;;2.77;2.53;;;;;;;;;;5034278;28;20457;-76
2022/12/23 09:42:27;;;;;;;2.90;2.70;;;;;;;;;;5034000;28;20446;-77
2022/12/23 09:45:04;;;;;;;2.00;1.90;;;;;;;;;;5038416;28;20426;-77
2022/12/23 09:47:32;;;;;;;2.50;2.30;;;;;;;;;;5039889;28;20490;-76
2022/12/23 09:50:02;;;;;;;3.00;2.80;;;;;;;;;;5035893;28;20470;-77
2022/12/23 09:52:34;;;;;;;6.70;2.50;;;;;;;;;;5034590;28;20439;-77
2022/12/23 09:55:01;;;;;;;2.30;2.10;;;;;;;;;;5034946;28;20435;-77
2022/12/23 09:57:34;;;;;;;2.10;2.00;;;;;;;;;;5034828;28;20989;-77
2022/12/23 10:00:03;;;;;;;3.40;2.50;;;;;;;;;;5039176;28;20859;-76
2022/12/23 10:02:35;;;;;;;2.53;2.10;;;;;;;;;;5037235;28;20458;-75
2022/12/23 10:05:07;;;;;;;3.10;2.17;;;;;;;;;;5048665;28;20437;-76
2022/12/23 10:07:37;;;;;;;2.63;2.47;;;;;;;;;;5050251;28;21011;-76
2022/12/23 10:10:08;;;;;;;1.87;1.77;;;;;;;;;;5041289;28;20473;-76
2022/12/23 10:12:37;;;;;;;3.60;2.03;;;;;;;;;;5042982;28;20472;-76
2022/12/23 10:15:11;;;;;;;3.57;2.20;;;;;;;;;;5044003;28;20442;-77
2022/12/23 10:17:41;;;;;;;2.00;1.83;;;;;;;;;;5042348;28;20466;-76
2022/12/23 10:20:16;;;;;;;2.80;2.60;;;;;;;;;;5053401;28;20476;-78
2022/12/23 10:22:44;;;;;;;2.67;2.47;;;;;;;;;;5051966;28;20433;-76
2022/12/23 10:25:14;;;;;;;2.13;2.03;;;;;;;;;;5061033;28;20438;-76
2022/12/23 10:27:43;;;;;;;2.20;2.10;;;;;;;;;;5065707;28;20539;-76
2022/12/23 10:30:13;;;;;;;5.73;3.97;;;;;;;;;;5059289;28;20481;-77
2022/12/23 10:32:47;;;;;;;2.43;2.23;;;;;;;;;;5058547;28;20441;-76
2022/12/23 10:35:19;;;;;;;3.93;1.97;;;;;;;;;;5057675;28;20468;-76
2022/12/23 10:37:49;;;;;;;5.77;2.17;;;;;;;;;;5059269;28;20442;-76
2022/12/23 10:40:21;;;;;;;1.80;1.70;;;;;;;;;;5059601;28;20560;-76
2022/12/23 10:42:57;;;;;;;2.17;2.07;;;;;;;;;;5054134;28;20442;-75
2022/12/23 10:45:31;;;;;;;4.13;3.00;;;;;;;;;;5057792;28;20446;-75
2022/12/23 10:48:03;;;;;;;2.40;2.23;;;;;;;;;;5059964;28;20460;-75
2022/12/23 10:50:46;;;;;;;2.20;1.80;;;;;;;;;;5049778;28;20469;-78
2022/12/23 10:53:15;;;;;;;2.10;1.90;;;;;;;;;;5049510;28;20430;-76
2022/12/23 10:55:42;;;;;;;2.07;1.97;;;;;;;;;;5049583;28;20575;-76
2022/12/23 10:58:14;;;;;;;2.20;2.10;;;;;;;;;;5047609;28;20466;-76
2022/12/23 11:00:43;;;;;;;2.20;2.00;;;;;;;;;;5048900;28;20845;-76
2022/12/23 11:03:15;;;;;;;2.30;2.10;;;;;;;;;;5048056;28;20438;-77
2022/12/23 11:05:45;;;;;;;2.30;2.10;;;;;;;;;;5049177;28;20441;-77
2022/12/23 11:08:12;;;;;;;3.30;2.37;;;;;;;;;;5048442;28;20461;-76
2022/12/23 11:10:39;;;;;;;2.70;2.13;;;;;;;;;;5031481;28;20560;-76
2022/12/23 11:13:07;;;;;;;2.30;1.70;;;;;;;;;;5033239;28;20910;-76
2022/12/23 11:15:34;;;;;;;1.70;1.60;;;;;;;;;;5031291;28;20439;-76
2022/12/23 11:18:03;;;;;;;2.00;1.90;;;;;;;;;;5029427;28;20462;-75
2022/12/23 11:20:30;;;;;;;3.00;1.80;;;;;;;;;;5028906;28;20442;-76
2022/12/23 11:23:00;;;;;;;2.27;2.07;;;;;;;;;;5045599;28;20460;-77
2022/12/23 11:25:30;;;;;;;3.20;3.00;;;;;;;;;;5048958;28;20446;-76
2022/12/23 11:27:58;;;;;;;2.50;2.30;;;;;;;;;;5049101;28;20547;-76
2022/12/23 11:30:25;;;;;;;2.70;2.43;;;;;;;;;;5048691;28;20905;-76
2022/12/23 11:32:53;;;;;;;2.60;2.40;;;;;;;;;;5048096;28;20454;-76
2022/12/23 11:35:27;;;;;;;2.17;2.07;;;;;;;;;;5048422;28;20472;-76
2022/12/23 11:37:54;;;;;;;2.67;2.57;;;;;;;;;;5049632;28;21103;-75
2022/12/23 11:40:24;;;;;;;2.40;2.27;;;;;;;;;;5048563;28;20540;-75
2022/12/23 11:42:52;;;;;;;2.43;2.27;;;;;;;;;;5048021;28;20441;-76
2022/12/23 11:45:23;;;;;;;3.00;2.40;;;;;;;;;;5048318;28;20457;-76
2022/12/23 11:47:50;;;;;;;3.87;2.80;;;;;;;;;;5049234;28;20485;-76
2022/12/23 11:50:34;;;;;;;4.30;3.90;;;;;;;;;;5052360;28;20485;-78
2022/12/23 11:53:04;;;;;;;3.90;3.50;;;;;;;;;;5053471;28;20520;-76
2022/12/23 11:55:33;;;;;;;14.33;12.93;;;;;;;;;;5054586;28;20441;-76
2022/12/23 11:58:01;;;;;;;10.67;6.10;;;;;;;;;;5049903;28;20480;-76
2022/12/23 12:00:29;;;;;;;3.50;3.30;;;;;;;;;;5049369;28;20523;-76
2022/12/23 12:02:58;;;;;;;3.53;3.33;;;;;;;;;;5048208;28;20445;-76
2022/12/23 12:05:29;;;;;;;3.60;3.30;;;;;;;;;;5048637;28;20453;-76
2022/12/23 12:07:59;;;;;;;4.63;3.63;;;;;;;;;;5049228;28;20468;-76
2022/12/23 12:10:26;;;;;;;4.50;4.10;;;;;;;;;;5047888;28;20473;-76
2022/12/23 12:12:56;;;;;;;4.20;3.80;;;;;;;;;;5049048;28;20446;-77
2022/12/23 12:15:26;;;;;;;3.60;3.30;;;;;;;;;;5042009;28;20441;-77
2022/12/23 12:17:54;;;;;;;3.80;3.50;;;;;;;;;;5048053;28;20969;-77
2022/12/23 12:20:26;;;;;;;3.90;3.40;;;;;;;;;;5047987;28;20442;-77
2022/12/23 12:22:56;;;;;;;3.13;2.80;;;;;;;;;;5048005;28;20905;-77
2022/12/23 12:25:25;;;;;;;2.93;2.73;;;;;;;;;;5049669;28;20437;-76
2022/12/23 12:27:55;;;;;;;3.27;3.07;;;;;;;;;;5050026;28;20475;-76
2022/12/23 12:30:23;;;;;;;4.90;3.30;;;;;;;;;;5050625;28;20507;-77
2022/12/23 12:33:00;;;;;;;2.27;2.10;;;;;;;;;;5047643;28;20449;-76
2022/12/23 12:35:31;;;;;;;4.03;2.70;;;;;;;;;;5063908;28;20936;-77
2022/12/23 12:38:01;;;;;;;3.80;3.50;;;;;;;;;;5063000;28;20513;-76
2022/12/23 12:40:31;;;;;;;3.67;2.43;;;;;;;;;;5057465;28;20504;-76
2022/12/23 12:43:00;;;;;;;2.47;2.27;;;;;;;;;;5054921;28;20456;-76
2022/12/23 12:45:31;;;;;;;3.40;2.70;;;;;;;;;;5058681;28;20464;-76
2022/12/23 12:48:05;;;;;;;2.00;1.90;;;;;;;;;;5063300;28;20465;-76
2022/12/23 12:50:34;;;;;;;3.20;2.77;;;;;;;;;;5060642;28;20491;-76
2022/12/23 12:53:04;;;;;;;2.33;2.07;;;;;;;;;;5051517;28;21034;-79
2022/12/23 12:55:33;;;;;;;3.50;2.70;;;;;;;;;;5060056;28;20974;-76
2022/12/23 12:58:01;;;;;;;1.83;1.73;;;;;;;;;;5048795;28;20461;-77
2022/12/23 13:00:30;;;;;;;1.93;1.83;;;;;;;;;;5048396;28;20447;-77
2022/12/23 13:03:04;;;;;;;2.83;1.70;;;;;;;;;;5047860;28;20446;-77
2022/12/23 13:05:46;;;;;;;2.53;2.23;;;;;;;;;;5047232;28;20904;-76
2022/12/23 13:08:20;;;;;;;2.50;2.30;;;;;;;;;;5047244;28;20859;-76
2022/12/23 13:10:49;;;;;;;2.00;1.90;;;;;;;;;;5047712;28;20481;-76
2022/12/23 13:13:22;;;;;;;2.10;1.80;;;;;;;;;;5049477;28;20445;-75
2022/12/23 13:15:55;;;;;;;4.90;3.77;;;;;;;;;;5049091;28;20444;-76
2022/12/23 13:18:28;;;;;;;3.03;1.80;;;;;;;;;;5048117;28;20485;-76
2022/12/23 13:20:58;;;;;;;2.40;1.70;;;;;;;;;;5059504;28;20445;-75
2022/12/23 13:23:27;;;;;;;1.90;1.80;;;;;;;;;;5071632;28;20413;-76
2022/12/23 13:25:57;;;;;;;2.40;1.70;;;;;;;;;;5049870;28;20499;-76
2022/12/23 13:28:29;;;;;;;1.90;1.80;;;;;;;;;;5047455;28;20426;-76
2022/12/23 13:30:59;;;;;;;2.07;1.90;;;;;;;;;;5046380;28;20494;-76
2022/12/23 13:33:30;;;;;;;1.90;1.80;;;;;;;;;;5046339;28;20446;-76
2022/12/23 13:36:05;;;;;;;2.03;1.63;;;;;;;;;;5055449;28;20429;-76
2022/12/23 13:38:37;;;;;;;2.03;1.57;;;;;;;;;;5057248;28;20428;-77
2022/12/23 13:41:10;;;;;;;1.87;1.77;;;;;;;;;;5053205;28;20445;-77
2022/12/23 13:43:41;;;;;;;2.07;1.60;;;;;;;;;;5055514;28;20464;-77
2022/12/23 13:46:13;;;;;;;1.83;1.73;;;;;;;;;;5058816;28;20422;-76
2022/12/23 13:48:44;;;;;;;1.90;1.53;;;;;;;;;;5050395;28;20479;-75
2022/12/23 13:51:14;;;;;;;2.10;2.00;;;;;;;;;;5049891;28;20476;-76
2022/12/23 13:53:55;;;;;;;2.03;1.70;;;;;;;;;;5049776;28;20433;-77
2022/12/23 13:56:27;;;;;;;2.30;1.50;;;;;;;;;;5049986;28;20927;-76
2022/12/23 13:58:54;;;;;;;2.00;1.90;;;;;;;;;;5049737;28;20437;-76
2022/12/23 14:01:32;;;;;;;4.10;2.40;;;;;;;;;;5049605;28;20449;-77
2022/12/23 14:04:19;;;;;;;2.03;1.93;;;;;;;;;;5049238;28;20433;-75
2022/12/23 14:06:48;;;;;;;2.17;1.70;;;;;;;;;;5049017;28;20473;-76
2022/12/23 14:09:16;;;;;;;1.70;1.60;;;;;;;;;;5049326;28;20484;-75
2022/12/23 14:11:43;;;;;;;1.70;1.60;;;;;;;;;;5049329;28;20901;-77
2022/12/23 14:14:19;;;;;;;1.57;1.47;;;;;;;;;;5049140;28;20450;-76
2022/12/23 14:16:52;;;;;;;1.60;1.50;;;;;;;;;;5049045;28;20523;-76
2022/12/23 14:19:34;;;;;;;1.50;1.40;;;;;;;;;;5048755;28;20453;-76
2022/12/23 14:22:07;;;;;;;1.90;1.80;;;;;;;;;;5049156;28;20430;-77
2022/12/23 14:24:50;;;;;;;2.20;2.00;;;;;;;;;;5048327;28;20457;-75
2022/12/23 14:27:29;;;;;;;2.73;1.60;;;;;;;;;;5048523;28;20475;-76
2022/12/23 14:30:01;;;;;;;1.80;1.70;;;;;;;;;;5048726;28;20432;-75
2022/12/23 14:32:31;;;;;;;1.93;1.83;;;;;;;;;;5048451;28;20469;-75
2022/12/23 14:35:15;;;;;;;1.77;1.67;;;;;;;;;;5048160;28;20998;-76
2022/12/23 14:37:42;;;;;;;1.67;1.57;;;;;;;;;;5048899;28;20548;-75
2022/12/23 14:40:27;;;;;;;2.30;2.10;;;;;;;;;;5048732;28;20457;-76
2022/12/23 14:43:24;;;;;;;1.63;1.53;;;;;;;;;;5048298;28;20453;-75
2022/12/23 14:45:51;;;;;;;1.87;1.67;;;;;;;;;;5048317;28;20527;-76
2022/12/23 14:48:33;;;;;;;1.93;1.63;;;;;;;;;;5047885;28;21015;-75
2022/12/23 14:51:02;;;;;;;1.80;1.70;;;;;;;;;;5047989;28;20906;-76
2022/12/23 14:53:30;;;;;;;1.70;1.60;;;;;;;;;;5047804;28;20441;-75
2022/12/23 14:56:11;;;;;;;1.80;1.70;;;;;;;;;;5048553;28;20446;-76
2022/12/23 14:59:02;;;;;;;2.20;1.93;;;;;;;;;;5048393;28;20445;-76
2022/12/23 15:01:34;;;;;;;2.20;1.97;;;;;;;;;;5048677;28;20426;-76
2022/12/23 15:04:06;;;;;;;2.67;1.90;;;;;;;;;;5047817;28;20441;-77
2022/12/23 15:06:36;;;;;;;1.67;1.57;;;;;;;;;;5040328;28;20473;-75
2022/12/23 15:09:04;;;;;;;3.20;1.50;;;;;;;;;;5048145;28;20456;-76
2022/12/23 15:11:33;;;;;;;1.80;1.70;;;;;;;;;;5048043;28;20489;-77
2022/12/23 15:14:03;;;;;;;4.97;1.90;;;;;;;;;;5047749;28;20453;-77
2022/12/23 15:16:31;;;;;;;1.97;1.87;;;;;;;;;;5047863;28;20515;-76
2022/12/23 15:19:01;;;;;;;2.03;1.93;;;;;;;;;;5047605;28;20484;-76
2022/12/23 15:21:29;;;;;;;2.67;2.00;;;;;;;;;;5047332;28;20898;-76
2022/12/23 15:23:57;;;;;;;1.87;1.77;;;;;;;;;;5047130;28;20949;-76
2022/12/23 15:26:26;;;;;;;3.53;1.87;;;;;;;;;;5047321;28;20527;-76